Time;durP1;ratioP1;P1;durP2;ratioP2;P2;SDS_P1;SDS_P2;PMS_P1;PMS_P2;Temp;Humidity;BMP_temperature;BMP_pressure;BME280_temperature;BME280_humidity;BME280_pressure;Samples;Min_cycle;Max_cycle;Signal;HPM_P1;HPM_P2
2021/03/30 00:01:52;;;;;;;3.70;2.60;;;;;;;5.71;100.00;102212.56;4999875;28;20076;-92
2021/03/30 00:04:19;;;;;;;4.80;3.30;;;;;;;5.67;100.00;102217.72;5001715;28;20095;-92
2021/03/30 00:06:45;;;;;;;3.67;2.57;;;;;;;5.62;100.00;102221.09;5018825;28;20128;-91
2021/03/30 00:09:16;;;;;;;3.83;3.00;;;;;;;5.59;100.00;102221.03;5016939;28;20045;-92
2021/03/30 00:11:43;;;;;;;4.50;2.97;;;;;;;5.56;100.00;102214.84;5002525;28;20139;-92
2021/03/30 00:14:11;;;;;;;4.97;3.17;;;;;;;5.54;100.00;102225.25;5017610;28;20052;-93
2021/03/30 00:16:37;;;;;;;3.73;3.17;;;;;;;5.53;100.00;102220.84;5004597;28;20576;-92
2021/03/30 00:19:04;;;;;;;4.00;3.30;;;;;;;5.51;100.00;102221.69;5018113;28;20045;-92
2021/03/30 00:21:33;;;;;;;5.50;2.97;;;;;;;5.47;100.00;102215.50;5009443;28;20049;-92
2021/03/30 00:23:59;;;;;;;5.17;2.93;;;;;;;5.46;100.00;102211.06;5016556;28;20053;-91
2021/03/30 00:26:25;;;;;;;5.80;3.47;;;;;;;5.47;100.00;102215.50;4990101;28;20069;-92
2021/03/30 00:28:52;;;;;;;5.33;3.60;;;;;;;5.47;100.00;102220.72;5006346;28;20092;-92
2021/03/30 00:31:20;;;;;;;4.63;3.17;;;;;;;5.44;100.00;102210.16;5044114;28;20049;-91
2021/03/30 00:33:48;;;;;;;4.33;3.00;;;;;;;5.41;100.00;102204.84;5000441;28;20037;-93
2021/03/30 00:36:17;;;;;;;6.63;3.03;;;;;;;5.36;100.00;102204.72;4992131;28;20045;-92
2021/03/30 00:38:44;;;;;;;3.33;2.80;;;;;;;5.34;100.00;102208.16;5006543;28;20125;-92
2021/03/30 00:41:10;;;;;;;5.73;2.87;;;;;;;5.34;100.00;102210.75;5002120;28;20041;-92
2021/03/30 00:43:36;;;;;;;7.90;3.37;;;;;;;5.35;100.00;102207.28;4999850;28;20063;-91
2021/03/30 00:46:16;;;;;;;6.20;3.63;;;;;;;5.33;100.00;102207.25;5001194;28;20041;-92
2021/03/30 00:48:45;;;;;;;4.47;3.20;;;;;;;5.31;100.00;102208.06;5018088;28;20079;-92
2021/03/30 00:51:19;;;;;;;5.93;3.87;;;;;;;5.31;100.00;102213.31;5018826;28;20068;-91
2021/03/30 00:53:46;;;;;;;6.00;3.90;;;;;;;5.27;100.00;102214.06;5017748;28;20164;-92
2021/03/30 00:56:13;;;;;;;4.37;3.10;;;;;;;5.19;100.00;102208.63;5002950;28;20049;-92
2021/03/30 00:58:39;;;;;;;6.03;3.10;;;;;;;5.15;100.00;102216.38;4999282;28;20044;-92
2021/03/30 01:01:06;;;;;;;5.53;3.40;;;;;;;5.11;100.00;102215.41;5017663;28;20095;-92
2021/03/30 01:03:32;;;;;;;4.37;3.20;;;;;;;5.11;100.00;102214.50;5008799;28;20049;-92
2021/03/30 01:06:00;;;;;;;7.20;3.70;;;;;;;5.08;100.00;102208.34;5029535;28;20591;-91
2021/03/30 01:09:08;;;;;;;6.53;2.93;;;;;;;5.03;100.00;102209.06;5027425;28;20051;-93
2021/03/30 01:12:05;;;;;;;4.67;3.00;;;;;;;4.97;100.00;102216.78;5018718;28;20128;-92
2021/03/30 01:14:57;;;;;;;4.50;3.23;;;;;;;4.92;100.00;102213.13;5019696;28;20052;-91
2021/03/30 01:17:37;;;;;;;4.67;3.73;;;;;;;4.89;100.00;102213.94;5030010;28;20073;-92
2021/03/30 01:20:30;;;;;;;5.27;3.07;;;;;;;4.84;100.00;102215.53;4996750;28;20037;-92
2021/03/30 01:23:17;;;;;;;4.30;3.13;;;;;;;4.81;100.00;102212.84;5014489;28;20037;-92
2021/03/30 01:25:52;;;;;;;6.90;3.60;;;;;;;4.82;100.00;102212.00;5009395;28;20152;-92
2021/03/30 01:28:37;;;;;;;4.40;3.20;;;;;;;4.77;100.00;102206.63;5000131;28;20037;-92
2021/03/30 01:31:04;;;;;;;4.93;3.53;;;;;;;4.72;100.00;102204.72;4998627;28;20055;-92
2021/03/30 01:33:33;;;;;;;5.40;3.77;;;;;;;4.66;100.00;102205.44;4998266;28;20052;-92
2021/03/30 01:36:00;;;;;;;3.93;2.77;;;;;;;4.60;100.00;102202.63;4989116;28;20041;-92
2021/03/30 01:38:29;;;;;;;5.67;3.20;;;;;;;4.57;100.00;102205.19;4988057;28;20045;-92
2021/03/30 01:40:55;;;;;;;4.70;3.07;;;;;;;4.52;100.00;102205.03;4994898;28;20049;-93
2021/03/30 01:43:25;;;;;;;4.30;3.10;;;;;;;4.47;100.00;102193.56;5032868;28;20806;-92
2021/03/30 01:45:53;;;;;;;3.87;3.40;;;;;;;4.43;100.00;102203.88;4996049;28;20511;-93
2021/03/30 01:48:23;;;;;;;6.40;3.33;;;;;;;4.43;100.00;102206.50;5030259;28;20131;-92
2021/03/30 01:50:52;;;;;;;4.97;2.80;;;;;;;4.41;100.00;102202.97;5001284;28;20041;-93
2021/03/30 01:53:19;;;;;;;5.03;3.20;;;;;;;4.37;100.00;102206.31;4997966;28;20064;-92
2021/03/30 01:55:52;;;;;;;4.87;3.10;;;;;;;4.33;100.00;102210.59;5017254;28;20045;-93
2021/03/30 01:58:20;;;;;;;4.63;3.00;;;;;;;4.30;100.00;102207.88;5016517;28;20563;-93
2021/03/30 02:00:48;;;;;;;6.50;3.53;;;;;;;4.25;100.00;102206.84;5017597;28;20064;-92
2021/03/30 02:03:17;;;;;;;3.50;2.63;;;;;;;4.19;100.00;102211.88;5029406;28;20049;-92
2021/03/30 02:05:45;;;;;;;5.20;3.23;;;;;;;4.18;100.00;102216.22;5009633;28;20099;-93
2021/03/30 02:08:12;;;;;;;3.90;3.00;;;;;;;4.14;100.00;102217.00;5016461;28;20576;-92
2021/03/30 02:10:46;;;;;;;6.63;3.23;;;;;;;4.14;100.00;102218.72;5017023;28;20053;-92
2021/03/30 02:13:30;;;;;;;5.47;3.05;;;;;;;4.11;100.00;102216.00;5003277;28;20053;-92
2021/03/30 02:16:04;;;;;;;6.35;3.60;;;;;;;4.08;100.00;102221.13;5014307;28;20136;-92
2021/03/30 02:18:34;;;;;;;5.18;3.45;;;;;;;4.03;100.00;102220.09;5008427;28;20094;-92
2021/03/30 02:21:06;;;;;;;4.10;2.83;;;;;;;3.98;100.00;102219.09;5010631;28;20044;-92
2021/03/30 02:23:36;;;;;;;4.33;2.87;;;;;;;3.94;100.00;102215.47;4995710;28;20052;-91
2021/03/30 02:26:04;;;;;;;4.97;3.20;;;;;;;3.89;100.00;102217.06;5001882;28;20120;-93
2021/03/30 02:28:47;;;;;;;4.17;3.03;;;;;;;3.87;100.00;102218.75;5014498;28;20404;-92
2021/03/30 02:31:16;;;;;;;4.57;3.67;;;;;;;3.83;100.00;102217.75;5017061;28;20050;-93
2021/03/30 02:33:50;;;;;;;4.20;3.10;;;;;;;3.81;100.00;102211.59;5002856;28;20132;-92
2021/03/30 02:36:18;;;;;;;4.00;2.90;;;;;;;3.78;100.00;102229.78;5015073;28;20132;-92
2021/03/30 02:38:48;;;;;;;5.17;3.37;;;;;;;3.76;100.00;102230.56;5004096;28;20037;-90
2021/03/30 02:41:16;;;;;;;5.10;3.27;;;;;;;3.73;100.00;102230.47;5019493;28;20041;-91
2021/03/30 02:43:46;;;;;;;5.20;2.87;;;;;;;3.70;100.00;102236.50;5001647;28;20124;-92
2021/03/30 02:46:15;;;;;;;3.70;3.03;;;;;;;3.65;100.00;102233.72;5013790;28;20208;-92
2021/03/30 02:48:42;;;;;;;5.57;3.07;;;;;;;3.61;100.00;102237.06;5016369;28;20048;-93
2021/03/30 02:51:11;;;;;;;4.40;2.97;;;;;;;3.58;100.00;102236.09;5016686;28;20045;-92
2021/03/30 02:53:38;;;;;;;4.17;3.13;;;;;;;3.55;100.00;102236.00;5031668;28;20041;-91
2021/03/30 02:56:06;;;;;;;4.73;2.97;;;;;;;3.51;100.00;102234.09;4999669;28;20042;-92
2021/03/30 02:58:33;;;;;;;4.00;2.83;;;;;;;3.49;100.00;102234.06;5003750;28;20042;-93
2021/03/30 03:00:59;;;;;;;4.10;3.07;;;;;;;3.47;100.00;102240.06;5015360;28;20514;-91
2021/03/30 03:03:30;;;;;;;5.77;3.47;;;;;;;3.44;100.00;102238.22;4997875;28;20045;-92
2021/03/30 03:05:58;;;;;;;4.27;2.70;;;;;;;3.39;100.00;102245.03;5005936;28;20055;-93
2021/03/30 03:08:25;;;;;;;3.13;2.70;;;;;;;3.36;100.00;102242.31;5000509;28;20119;-93
2021/03/30 03:10:53;;;;;;;4.70;3.20;;;;;;;3.34;100.00;102243.97;4985663;28;20100;-91
2021/03/30 03:13:20;;;;;;;6.17;3.57;;;;;;;3.32;100.00;102233.50;5010522;28;20049;-92
2021/03/30 03:15:46;;;;;;;4.80;3.77;;;;;;;3.37;100.00;102231.94;5011773;28;20045;-91
2021/03/30 03:18:16;;;;;;;5.50;3.90;;;;;;;3.41;100.00;102219.84;5010517;28;20060;-93
2021/03/30 03:20:50;;;;;;;7.27;4.53;;;;;;;3.40;100.00;102225.91;4997615;28;20433;-92
2021/03/30 03:23:18;;;;;;;5.90;3.35;;;;;;;3.37;100.00;102226.72;5001173;28;20060;-91
2021/03/30 03:25:47;;;;;;;11.87;4.73;;;;;;;3.40;100.00;102233.75;5004553;28;20665;-92
2021/03/30 03:28:17;;;;;;;5.23;3.63;;;;;;;3.36;100.00;102224.94;5020947;28;20327;-92
2021/03/30 03:30:44;;;;;;;6.60;4.10;;;;;;;3.38;100.00;102231.09;5003736;28;20037;-92
2021/03/30 03:33:12;;;;;;;4.63;3.30;;;;;;;3.37;100.00;102228.44;5017115;28;20044;-93
2021/03/30 03:35:58;;;;;;;5.27;3.47;;;;;;;3.35;100.00;102238.81;5006985;28;20040;-92
2021/03/30 03:38:24;;;;;;;4.25;2.95;;;;;;;3.29;100.00;102236.00;5034983;28;20045;-92
2021/03/30 03:40:52;;;;;;;4.83;3.10;;;;;;;3.24;100.00;102234.94;5000410;28;20057;-93
2021/03/30 03:43:22;;;;;;;4.30;3.60;;;;;;;3.18;100.00;102234.72;5038665;28;20487;-92
2021/03/30 03:45:49;;;;;;;3.70;2.90;;;;;;;3.13;100.00;102236.31;5023138;28;20518;-93
2021/03/30 03:48:18;;;;;;;4.73;2.70;;;;;;;3.08;100.00;102238.75;5006466;28;20553;-92
2021/03/30 03:50:45;;;;;;;4.73;2.93;;;;;;;3.04;100.00;102243.81;5007462;28;20068;-92
2021/03/30 03:53:13;;;;;;;5.13;2.80;;;;;;;3.02;100.00;102240.25;5007803;28;20041;-94
2021/03/30 03:55:47;;;;;;;4.17;2.60;;;;;;;3.00;100.00;102249.75;5027183;28;20069;-92
2021/03/30 03:58:22;;;;;;;4.03;2.77;;;;;;;2.99;100.00;102247.97;5000931;28;20167;-91
2021/03/30 04:00:53;;;;;;;3.80;2.90;;;;;;;2.99;100.00;102247.97;5006994;28;20046;-92
2021/03/30 04:03:24;;;;;;;3.40;2.50;;;;;;;2.97;100.00;102244.44;5016324;28;20045;-91
2021/03/30 04:06:05;;;;;;;4.07;2.83;;;;;;;2.98;100.00;102244.47;5022103;28;20053;-91
2021/03/30 04:08:33;;;;;;;4.67;3.37;;;;;;;3.04;100.00;102244.72;5013285;28;20084;-91
2021/03/30 04:11:05;;;;;;;6.33;3.40;;;;;;;3.04;100.00;102242.09;5021338;28;20079;-91
2021/03/30 04:13:32;;;;;;;5.47;3.20;;;;;;;3.02;100.00;102246.34;5006480;28;20053;-91
2021/03/30 04:16:04;;;;;;;4.33;3.50;;;;;;;2.99;100.00;102237.53;5036911;28;20047;-91
2021/03/30 04:18:34;;;;;;;5.77;3.57;;;;;;;2.96;100.00;102234.81;5011279;28;20068;-92
2021/03/30 04:21:05;;;;;;;4.97;2.93;;;;;;;2.93;100.00;102238.19;5006403;28;20041;-91
2021/03/30 04:23:33;;;;;;;3.80;3.10;;;;;;;2.88;100.00;102244.09;5003902;28;20056;-92
2021/03/30 04:25:59;;;;;;;4.93;3.43;;;;;;;2.88;100.00;102244.09;5021085;28;20498;-92
2021/03/30 04:28:26;;;;;;;5.53;3.30;;;;;;;2.86;100.00;102245.75;5011473;28;20489;-90
2021/03/30 04:30:55;;;;;;;5.03;3.33;;;;;;;2.84;100.00;102253.53;5005722;28;20870;-92
2021/03/30 04:33:21;;;;;;;4.13;3.50;;;;;;;2.81;100.00;102249.09;5005034;28;20036;-92
2021/03/30 04:35:47;;;;;;;4.50;3.20;;;;;;;2.80;100.00;102251.66;5017859;28;20109;-92
2021/03/30 04:38:14;;;;;;;4.67;3.30;;;;;;;2.80;100.00;102256.88;5016360;28;20626;-91
2021/03/30 04:40:49;;;;;;;4.90;3.20;;;;;;;2.79;100.00;102252.50;5021325;28;20127;-92
2021/03/30 04:43:21;;;;;;;5.83;3.70;;;;;;;2.78;100.00;102258.53;5022928;28;20229;-91
2021/03/30 04:45:48;;;;;;;4.00;3.10;;;;;;;2.77;100.00;102256.75;4999772;28;20470;-93
2021/03/30 04:48:18;;;;;;;4.73;3.57;;;;;;;2.76;100.00;102257.56;5003247;28;20048;-93
2021/03/30 04:50:45;;;;;;;5.13;3.17;;;;;;;2.77;100.00;102259.34;5024708;28;20104;-93
2021/03/30 04:53:15;;;;;;;5.47;3.30;;;;;;;2.82;100.00;102257.81;5017947;28;20041;-93
2021/03/30 04:55:41;;;;;;;5.17;3.50;;;;;;;2.82;100.00;102257.81;5002983;28;20048;-93
2021/03/30 04:58:08;;;;;;;5.50;3.53;;;;;;;2.83;100.00;102256.97;5021546;28;20133;-92
2021/03/30 05:00:37;;;;;;;5.57;4.20;;;;;;;2.87;100.00;102260.59;5028124;28;20049;-92
2021/03/30 05:03:03;;;;;;;4.70;3.87;;;;;;;2.92;100.00;102257.31;5006724;28;20045;-92
2021/03/30 05:05:29;;;;;;;6.13;3.67;;;;;;;2.97;100.00;102262.69;5011745;28;20068;-92
2021/03/30 05:07:56;;;;;;;6.10;4.00;;;;;;;3.02;100.00;102262.00;5008425;28;20074;-93
2021/03/30 05:10:26;;;;;;;6.57;4.40;;;;;;;3.09;100.00;102276.19;5007456;28;20106;-92
2021/03/30 05:12:53;;;;;;;7.33;4.23;;;;;;;3.12;100.00;102267.59;5010875;28;20073;-92
2021/03/30 05:15:22;;;;;;;5.30;4.23;;;;;;;3.13;100.00;102280.69;5008451;28;20106;-92
2021/03/30 05:17:48;;;;;;;6.17;3.47;;;;;;;3.16;100.00;102275.56;5009673;28;20058;-92
2021/03/30 05:20:15;;;;;;;9.47;4.13;;;;;;;3.25;100.00;102278.50;5026083;28;20079;-92
2021/03/30 05:22:44;;;;;;;7.33;4.17;;;;;;;3.35;100.00;102279.72;5031318;28;20037;-92
2021/03/30 05:25:12;;;;;;;6.53;4.37;;;;;;;3.44;100.00;102292.22;5028108;28;20060;-92
2021/03/30 05:27:41;;;;;;;9.07;4.70;;;;;;;3.52;100.00;102285.53;5036007;28;20552;-92
2021/03/30 05:30:11;;;;;;;9.60;4.37;;;;;;;3.61;100.00;102294.56;5030439;28;20072;-92
2021/03/30 05:32:38;;;;;;;8.07;5.20;;;;;;;3.68;100.00;102288.72;5006978;28;20163;-92
2021/03/30 05:35:09;;;;;;;7.10;4.40;;;;;;;3.76;100.00;102293.31;5042936;28;20098;-91
2021/03/30 05:37:41;;;;;;;9.00;5.03;;;;;;;3.82;100.00;102294.41;4995991;28;20037;-92
2021/03/30 05:40:10;;;;;;;9.60;5.30;;;;;;;3.96;100.00;102302.72;5028432;28;20037;-92
2021/03/30 05:42:40;;;;;;;11.67;6.00;;;;;;;4.10;100.00;102297.91;5029081;28;20059;-92
2021/03/30 05:45:08;;;;;;;10.67;6.87;;;;;;;4.21;100.00;102299.16;5012175;28;20108;-92
2021/03/30 05:47:36;;;;;;;16.53;8.33;;;;;;;4.36;100.00;102298.72;5010327;28;20045;-93
2021/03/30 05:50:12;;;;;;;13.43;7.77;;;;;;;4.47;100.00;102293.00;5004418;28;20056;-92
2021/03/30 05:52:45;;;;;;;12.17;7.53;;;;;;;4.59;100.00;102296.84;5007311;28;20045;-93
2021/03/30 05:55:27;;;;;;;11.63;8.23;;;;;;;4.72;100.00;102296.38;5035919;28;20053;-93
2021/03/30 05:57:56;;;;;;;10.33;6.40;;;;;;;4.75;100.00;102296.44;5019358;28;20095;-92
2021/03/30 06:00:24;;;;;;;17.30;9.47;;;;;;;4.84;100.00;102299.34;5014192;28;20049;-92
2021/03/30 06:02:56;;;;;;;11.17;8.30;;;;;;;4.91;100.00;102309.16;5005147;28;20049;-92
2021/03/30 06:05:26;;;;;;;16.10;9.57;;;;;;;5.02;100.00;102304.22;5008652;28;20045;-92
2021/03/30 06:07:54;;;;;;;17.50;10.07;;;;;;;5.14;100.00;102298.44;5005480;28;20045;-92
2021/03/30 06:10:26;;;;;;;16.70;10.27;;;;;;;5.24;100.00;102305.72;5003213;28;20057;-93
2021/03/30 06:12:57;;;;;;;14.40;9.40;;;;;;;5.36;100.00;102311.28;5019742;28;20045;-92
2021/03/30 06:15:35;;;;;;;13.50;8.50;;;;;;;5.52;100.00;102316.09;5013219;28;20052;-93
2021/03/30 06:18:20;;;;;;;15.27;9.43;;;;;;;5.72;100.00;102315.72;5015922;28;20063;-92
2021/03/30 06:20:48;;;;;;;;;;;;;;;5.93;100.00;102316.31;5004804;28;20231;-92
2021/03/30 06:23:28;;;;;;;16.27;9.57;;;;;;;6.12;100.00;102318.53;5016125;28;19979;-93
2021/03/30 06:25:56;;;;;;;18.30;9.70;;;;;;;6.31;100.00;102314.63;5016576;28;20067;-92
2021/03/30 06:28:26;;;;;;;15.97;10.63;;;;;;;7.15;100.00;102323.44;5035683;28;20044;-93
2021/03/30 06:31:11;;;;;;;16.57;9.23;;;;;;;8.51;100.00;102324.09;5002328;28;20049;-93
2021/03/30 06:34:02;;;;;;;12.32;8.18;;;;;;;10.05;100.00;102310.03;5002951;28;20055;-92
2021/03/30 06:36:31;;;;;;;9.77;6.50;;;;;;;11.24;94.40;102313.34;5026369;28;20045;-93
2021/03/30 06:39:03;;;;;;;7.75;6.30;;;;;;;12.34;88.05;102313.50;5021806;28;20056;-92
2021/03/30 06:41:45;;;;;;;8.55;6.05;;;;;;;13.22;83.42;102304.41;5025378;28;20045;-93
2021/03/30 06:44:25;;;;;;;9.68;6.25;;;;;;;14.19;77.65;102314.34;5038504;28;20053;-92
2021/03/30 06:47:05;;;;;;;7.60;5.65;;;;;;;15.02;74.23;102322.34;5026116;28;20052;-93
2021/03/30 06:49:35;;;;;;;6.57;5.40;;;;;;;15.57;67.15;102318.94;5024762;28;20037;-93
2021/03/30 06:52:16;;;;;;;6.80;4.53;;;;;;;16.17;67.19;102319.78;5025815;28;20052;-93
2021/03/30 06:55:23;;;;;;;7.35;5.07;;;;;;;17.04;61.04;102319.94;5025034;28;20277;-93
2021/03/30 06:57:50;;;;;;;8.02;5.13;;;;;;;17.41;60.02;102328.03;5010315;28;20092;-93
2021/03/30 07:00:26;;;;;;;7.38;5.15;;;;;;;17.76;55.32;102326.38;5011942;28;20128;-93
2021/03/30 07:02:55;;;;;;;10.77;5.35;;;;;;;17.38;54.30;102323.63;5027424;28;20057;-93
2021/03/30 07:05:29;;;;;;;7.50;4.82;;;;;;;17.62;53.92;102319.53;5021192;28;20052;-92
2021/03/30 07:07:57;;;;;;;;;;;;;;;17.18;52.25;102325.88;5031790;28;20055;-92
2021/03/30 07:10:35;;;;;;;8.70;5.03;;;;;;;17.68;52.76;102331.88;5028809;28;19924;-92
2021/03/30 07:13:03;;;;;;;9.10;5.22;;;;;;;17.79;53.20;102331.66;5013766;28;20151;-92
2021/03/30 07:15:29;;;;;;;8.68;5.57;;;;;;;18.15;50.60;102321.81;5031943;28;20095;-93
2021/03/30 07:18:07;;;;;;;8.30;5.50;;;;;;;18.35;49.54;102324.88;5078960;23;20030;-93
2021/03/30 07:20:42;;;;;;;9.27;5.88;;;;;;;17.86;50.38;102325.25;5009526;28;20048;-93
2021/03/30 07:23:12;;;;;;;7.75;5.28;;;;;;;18.63;49.84;102332.16;5033786;28;20042;-94
2021/03/30 07:25:49;;;;;;;8.32;5.15;;;;;;;18.81;48.74;102335.22;5029847;28;20038;-92
2021/03/30 07:28:31;;;;;;;8.73;5.40;;;;;;;19.74;48.26;102336.06;5018922;28;20030;-94
2021/03/30 07:31:12;;;;;;;8.13;6.28;;;;;;;19.38;45.93;102339.81;5017514;28;20024;-92
2021/03/30 07:33:52;;;;;;;10.48;6.13;;;;;;;19.68;45.61;102334.47;5021463;28;20065;-92
2021/03/30 07:36:48;;;;;;;11.43;6.20;;;;;;;19.89;46.12;102335.56;5044337;28;20030;-94
2021/03/30 07:39:27;;;;;;;9.63;5.78;;;;;;;19.76;45.64;102336.88;5021013;28;20030;-93
2021/03/30 07:41:57;;;;;;;8.95;6.82;;;;;;;19.68;45.60;102335.34;5033400;28;20042;-92
2021/03/30 07:44:25;;;;;;;9.48;6.50;;;;;;;19.63;46.43;102326.56;5022003;28;20049;-92
2021/03/30 07:46:57;;;;;;;8.25;6.53;;;;;;;19.63;47.03;102328.34;5028519;23;20076;-70
2021/03/30 07:49:28;;;;;;;11.85;7.25;;;;;;;20.28;45.74;102327.13;5031269;28;20032;-69
2021/03/30 07:52:16;;;;;;;13.20;7.15;;;;;;;20.38;45.37;102337.47;5019796;28;20049;-69
2021/03/30 07:55:21;;;;;;;12.32;7.15;;;;;;;20.97;47.86;102326.41;5051657;28;20134;-69
2021/03/30 07:58:01;;;;;;;11.10;7.25;;;;;;;21.08;43.63;102334.06;5050010;28;20066;-70
2021/03/30 08:00:30;;;;;;;10.55;7.15;;;;;;;20.79;43.31;102346.78;5045037;28;20028;-69
2021/03/30 08:03:05;;;;;;;12.20;7.80;;;;;;;20.41;43.53;102339.16;5044601;28;20049;-70
2021/03/30 08:05:31;;;;;;;11.30;7.65;;;;;;;20.23;45.11;102344.25;4979842;28;20079;-69
2021/03/30 08:07:58;;;;;;;10.30;7.20;;;;;;;20.56;44.59;102344.03;5050614;28;20095;-69
2021/03/30 08:10:30;;;;;;;9.85;7.45;;;;;;;20.18;44.47;102346.22;5014048;28;20485;-70
2021/03/30 08:13:23;;;;;;;11.18;7.43;;;;;;;21.93;41.96;102338.75;5046392;28;20044;-70
2021/03/30 08:15:50;;;;;;;;;;;;;;;22.86;40.02;102333.91;5041703;28;20084;-70
2021/03/30 08:18:18;;;;;;;11.13;6.88;;;;;;;23.57;39.16;102343.16;5049754;28;19921;-70
2021/03/30 08:21:03;;;;;;;8.13;5.97;;;;;;;23.70;37.20;102347.97;5013396;28;20044;-70
2021/03/30 08:23:30;;;;;;;13.32;7.47;;;;;;;24.72;36.62;102350.91;5047539;28;20037;-69
2021/03/30 08:26:17;;;;;;;10.10;7.32;;;;;;;23.76;36.67;102353.06;5009876;28;20445;-70
2021/03/30 08:28:49;;;;;;;12.07;7.80;;;;;;;23.87;38.92;102339.91;5039166;28;20052;-70
2021/03/30 08:31:16;;;;;;;7.97;6.15;;;;;;;25.61;36.68;102348.72;5052470;28;20510;-70
2021/03/30 08:33:43;;;;;;;10.30;7.47;;;;;;;25.05;34.72;102345.50;5009814;28;20049;-70
2021/03/30 08:36:26;;;;;;;11.27;7.57;;;;;;;23.98;37.19;102352.91;5029126;28;20052;-70
2021/03/30 08:38:55;;;;;;;12.25;8.40;;;;;;;22.43;38.79;102341.16;5035070;28;20140;-70
2021/03/30 08:41:45;;;;;;;10.93;8.40;;;;;;;22.57;39.46;102353.16;5050807;28;20037;-71
2021/03/30 08:44:39;;;;;;;12.95;6.82;;;;;;;23.49;38.14;102347.16;5006216;28;20132;-70
2021/03/30 08:47:44;;;;;;;9.73;7.50;;;;;;;23.13;39.01;102357.88;5051524;28;20060;-69
2021/03/30 08:50:15;;;;;;;10.57;8.23;;;;;;;22.74;39.55;102351.47;5017261;28;20127;-70
2021/03/30 08:52:41;;;;;;;12.95;8.55;;;;;;;22.74;40.31;102353.28;5045293;28;20040;-70
2021/03/30 08:55:09;;;;;;;12.15;8.55;;;;;;;22.38;40.07;102353.09;5012400;28;20045;-69
2021/03/30 08:57:39;;;;;;;14.15;8.95;;;;;;;22.98;40.38;102354.06;5039984;28;20501;-69
2021/03/30 09:00:12;;;;;;;11.80;8.02;;;;;;;23.47;39.78;102341.84;5030931;28;20045;-69
2021/03/30 09:02:42;;;;;;;10.65;6.97;;;;;;;24.50;39.49;102355.69;5021821;28;20689;-69
2021/03/30 09:05:18;;;;;;;14.73;8.25;;;;;;;25.77;34.43;102355.03;5038836;28;20044;-72
2021/03/30 09:07:48;;;;;;;12.93;8.18;;;;;;;25.38;35.21;102352.72;5010921;28;20045;-69
2021/03/30 09:10:16;;;;;;;12.70;8.02;;;;;;;24.53;36.21;102355.50;5025616;28;20049;-70
2021/03/30 09:12:44;;;;;;;22.63;12.18;;;;;;;23.13;40.39;102352.47;5030548;28;20481;-70
2021/03/30 09:15:12;;;;;;;11.73;9.00;;;;;;;24.01;39.04;102348.22;5052428;28;20040;-71
2021/03/30 09:17:58;;;;;;;10.90;7.68;;;;;;;25.84;35.64;102347.44;5041859;28;20135;-69
2021/03/30 09:20:26;;;;;;;15.57;7.90;;;;;;;26.83;33.64;102352.34;5019792;28;20053;-69
2021/03/30 09:22:56;;;;;;;12.27;7.90;;;;;;;25.84;34.43;102344.75;4999320;28;20049;-69
2021/03/30 09:25:58;;;;;;;11.05;7.68;;;;;;;25.04;35.79;102343.75;5023653;28;20056;-69
2021/03/30 09:28:22;;;;;;;14.77;8.45;;;;;;;24.56;36.36;102344.56;5009130;28;20040;-69
2021/03/30 09:30:48;;;;;;;11.68;7.43;;;;;;;26.53;36.51;102352.38;5030641;28;20097;-69
2021/03/30 09:33:15;;;;;;;14.25;7.63;;;;;;;26.62;35.42;102344.53;5049606;28;20053;-69
2021/03/30 09:35:42;;;;;;;11.52;6.82;;;;;;;27.21;33.07;102352.66;5015771;28;20068;-69
2021/03/30 09:38:08;;;;;;;11.93;6.68;;;;;;;28.52;33.82;102354.81;5043410;28;20734;-69
2021/03/30 09:40:41;;;;;;;11.10;6.32;;;;;;;28.97;30.25;102343.53;5028637;28;20528;-69
2021/03/30 09:43:10;;;;;;;12.05;7.28;;;;;;;27.81;32.20;102341.50;5003842;28;20472;-69
2021/03/30 09:45:37;;;;;;;11.25;6.97;;;;;;;29.11;30.91;102333.41;5019418;28;20041;-70
2021/03/30 09:48:12;;;;;;;12.45;7.60;;;;;;;30.08;29.41;102328.97;5013947;28;20043;-68
2021/03/30 09:50:43;;;;;;;12.18;6.88;;;;;;;30.15;29.11;102322.06;5054751;28;20140;-69
2021/03/30 09:53:09;;;;;;;9.15;6.85;;;;;;;30.00;28.54;102326.78;5011293;28;20045;-69
2021/03/30 09:55:53;;;;;;;12.50;7.68;;;;;;;28.45;29.82;102326.28;5043710;28;20037;-69
2021/03/30 09:58:21;;;;;;;10.23;6.78;;;;;;;28.36;30.33;102321.50;5032395;28;20041;-70
2021/03/30 10:00:50;;;;;;;9.07;7.10;;;;;;;29.20;29.46;102322.81;5027087;28;20485;-69
2021/03/30 10:03:17;;;;;;;9.65;6.15;;;;;;;29.39;27.74;102336.81;5040158;28;20489;-69
2021/03/30 10:05:44;;;;;;;12.32;7.30;;;;;;;28.49;29.38;102325.09;5028413;28;20044;-69
2021/03/30 10:08:20;;;;;;;10.68;6.22;;;;;;;27.30;31.97;102324.03;5041998;28;20037;-70
2021/03/30 10:10:53;;;;;;;11.27;7.07;;;;;;;26.94;34.18;102323.56;5042202;28;20124;-69
2021/03/30 10:13:31;;;;;;;11.15;6.90;;;;;;;28.26;30.00;102323.09;5021477;28;20057;-69
2021/03/30 10:16:00;;;;;;;10.43;7.13;;;;;;;29.44;29.19;102326.47;5019283;28;20037;-69
2021/03/30 10:18:27;;;;;;;11.93;7.53;;;;;;;29.24;31.95;102317.03;5003797;28;20044;-69
2021/03/30 10:21:00;;;;;;;10.55;6.75;;;;;;;28.40;30.08;102320.28;5033053;28;20048;-70
2021/03/30 10:23:31;;;;;;;9.15;7.50;;;;;;;27.72;31.26;102320.38;5017526;28;20044;-69
2021/03/30 10:26:26;;;;;;;9.80;7.15;;;;;;;27.86;29.89;102319.47;5026307;28;20070;-69
2021/03/30 10:28:54;;;;;;;8.77;6.97;;;;;;;27.23;31.00;102317.28;5045546;28;20072;-69
2021/03/30 10:31:31;;;;;;;9.27;7.18;;;;;;;26.13;32.07;102310.50;5014309;28;20048;-69
2021/03/30 10:33:58;;;;;;;11.88;7.10;;;;;;;25.87;33.11;102309.34;5022250;28;20620;-69
2021/03/30 10:36:24;;;;;;;9.45;6.90;;;;;;;26.23;33.81;102317.13;5033913;28;20618;-69
2021/03/30 10:39:07;;;;;;;10.15;5.68;;;;;;;28.55;31.33;102318.34;5044274;28;20044;-69
2021/03/30 10:41:37;;;;;;;8.85;6.72;;;;;;;27.12;30.60;102307.97;5020290;28;20045;-69
2021/03/30 10:44:04;;;;;;;10.50;5.68;;;;;;;27.53;32.58;102307.13;5044163;28;20052;-69
2021/03/30 10:46:40;;;;;;;11.75;7.05;;;;;;;25.98;33.05;102296.03;5028188;28;20074;-70
2021/03/30 10:49:06;;;;;;;9.27;6.63;;;;;;;27.71;31.57;102295.09;5033662;28;20048;-69
2021/03/30 10:51:39;;;;;;;9.88;5.82;;;;;;;28.92;30.21;102296.72;5028212;28;20383;-69
2021/03/30 10:54:07;;;;;;;9.35;5.80;;;;;;;29.48;28.47;102292.56;5024861;28;20445;-70
2021/03/30 10:56:33;;;;;;;9.13;6.95;;;;;;;27.73;30.07;102286.81;5010639;28;20048;-69
2021/03/30 10:59:07;;;;;;;6.85;5.57;;;;;;;28.00;29.90;102290.41;5036155;28;20044;-68
2021/03/30 11:01:33;;;;;;;9.00;5.68;;;;;;;27.02;30.40;102306.81;5011210;28;20043;-69
2021/03/30 11:03:59;;;;;;;10.50;7.20;;;;;;;25.51;32.87;102292.41;5036310;28;20497;-68
2021/03/30 11:06:25;;;;;;;10.63;6.95;;;;;;;26.42;31.98;102282.56;5026289;28;20041;-69
2021/03/30 11:08:52;;;;;;;10.25;5.38;;;;;;;26.66;31.91;102288.31;5045893;28;20048;-68
2021/03/30 11:11:18;;;;;;;9.88;5.97;;;;;;;27.34;30.56;102285.78;5047772;28;20049;-68
2021/03/30 11:13:44;;;;;;;14.15;6.75;;;;;;;27.09;31.49;102285.63;5038977;28;20620;-68
2021/03/30 11:16:10;;;;;;;10.88;6.32;;;;;;;27.61;30.13;102282.19;5042097;28;20230;-68
2021/03/30 11:18:37;;;;;;;9.32;5.88;;;;;;;27.40;30.04;102277.19;5046061;28;20479;-68
2021/03/30 11:21:03;;;;;;;7.55;4.82;;;;;;;27.35;31.56;102268.50;5010538;28;20557;-68
2021/03/30 11:23:29;;;;;;;6.28;4.65;;;;;;;29.23;29.64;102271.72;5028949;28;20394;-69
2021/03/30 11:25:56;;;;;;;7.72;4.03;;;;;;;30.14;28.90;102276.72;5026429;28;20045;-68
2021/03/30 11:28:22;;;;;;;7.85;4.20;;;;;;;28.80;28.10;102265.81;5045748;28;20033;-69
2021/03/30 11:30:53;;;;;;;4.68;4.03;;;;;;;28.77;28.40;102261.47;5037253;28;20115;-69
2021/03/30 11:33:43;;;;;;;8.45;4.65;;;;;;;28.46;30.14;102264.63;5027190;28;20045;-69
2021/03/30 11:36:13;;;;;;;7.57;5.15;;;;;;;26.51;30.59;102265.72;5021947;28;20045;-69
2021/03/30 11:38:39;;;;;;;6.85;5.18;;;;;;;27.07;30.61;102254.97;5022935;28;20045;-69
2021/03/30 11:41:05;;;;;;;11.02;4.68;;;;;;;27.91;29.28;102260.25;5044132;28;20041;-69
2021/03/30 11:43:31;;;;;;;6.72;4.20;;;;;;;27.21;31.21;102246.81;5023037;28;20106;-69
2021/03/30 11:45:57;;;;;;;6.00;4.32;;;;;;;27.61;30.71;102250.47;5024700;28;20049;-69